Time;durP1;ratioP1;P1;durP2;ratioP2;P2;SDS_P1;SDS_P2;PMS_P1;PMS_P2;Temp;Humidity;BMP_temperature;BMP_pressure;BME280_temperature;BME280_humidity;BME280_pressure;Samples;Min_cycle;Max_cycle;Signal;HPM_P1;HPM_P2
2022/07/14 00:02:16;;;;;;;11.50;3.38;;;13.10;92.00;;;;;;5046918;28;20029;-70
2022/07/14 00:04:41;;;;;;;12.32;3.10;;;13.00;91.80;;;;;;5048252;28;20402;-70
2022/07/14 00:07:07;;;;;;;12.95;2.90;;;13.00;92.00;;;;;;5048036;28;20045;-70
2022/07/14 00:09:32;;;;;;;26.73;3.60;;;12.90;92.00;;;;;;5043523;28;20033;-70
2022/07/14 00:11:58;;;;;;;16.63;3.15;;;12.80;92.20;;;;;;5046262;28;20248;-70
2022/07/14 00:14:23;;;;;;;24.02;3.20;;;12.80;92.40;;;;;;5046197;28;20036;-70
2022/07/14 00:16:49;;;;;;;17.25;3.30;;;12.80;92.60;;;;;;5048942;28;20108;-70
2022/07/14 00:19:14;;;;;;;14.30;3.40;;;12.80;92.90;;;;;;5045958;28;20053;-70
2022/07/14 00:21:40;;;;;;;10.38;2.55;;;12.80;92.50;;;;;;5042378;28;20033;-70
2022/07/14 00:24:09;;;;;;;15.27;3.20;;;12.90;92.40;;;;;;5046163;28;20037;-70
2022/07/14 00:26:35;;;;;;;13.15;3.10;;;12.80;92.40;;;;;;5044977;28;20041;-70
2022/07/14 00:29:00;;;;;;;17.40;3.40;;;12.70;92.70;;;;;;5045021;28;20033;-70
2022/07/14 00:31:26;;;;;;;12.02;2.90;;;12.70;92.90;;;;;;5048954;28;20059;-70
2022/07/14 00:33:51;;;;;;;18.50;2.88;;;12.70;92.70;;;;;;5046907;28;20359;-70
2022/07/14 00:36:17;;;;;;;14.13;2.60;;;12.70;92.90;;;;;;5052104;28;20051;-70
2022/07/14 00:38:42;;;;;;;9.20;2.80;;;12.70;92.70;;;;;;5045686;28;20041;-70
2022/07/14 00:41:08;;;;;;;12.73;2.80;;;12.70;92.60;;;;;;5046754;28;20167;-70
2022/07/14 00:43:33;;;;;;;17.55;3.22;;;12.60;92.60;;;;;;5037222;28;20051;-70
2022/07/14 00:45:59;;;;;;;13.88;2.92;;;12.60;92.80;;;;;;5045626;28;20170;-70
2022/07/14 00:48:25;;;;;;;18.42;3.53;;;12.50;93.00;;;;;;5047949;28;20033;-70
2022/07/14 00:50:51;;;;;;;13.45;3.00;;;12.50;93.30;;;;;;5043870;28;20084;-70
2022/07/14 00:53:17;;;;;;;19.73;2.95;;;12.50;93.30;;;;;;5042905;28;20038;-70
2022/07/14 00:55:43;;;;;;;15.38;3.08;;;12.50;93.30;;;;;;5040419;28;20448;-70
2022/07/14 00:58:10;;;;;;;17.25;2.85;;;12.40;93.30;;;;;;5045447;28;20033;-70
2022/07/14 01:00:36;;;;;;;12.88;3.08;;;12.40;93.30;;;;;;5045384;28;20329;-70
2022/07/14 01:03:01;;;;;;;19.42;3.17;;;12.50;93.30;;;;;;5041954;28;20083;-70
2022/07/14 01:05:27;;;;;;;26.30;3.28;;;12.40;93.20;;;;;;5046581;28;20391;-70
2022/07/14 01:07:53;;;;;;;15.35;3.35;;;12.30;93.40;;;;;;5041383;28;20037;-70
2022/07/14 01:10:19;;;;;;;14.52;2.97;;;12.30;93.80;;;;;;5044694;28;20094;-70
2022/07/14 01:12:46;;;;;;;12.40;3.65;;;12.20;93.70;;;;;;5045411;28;20128;-70
2022/07/14 01:15:14;;;;;;;15.07;3.10;;;12.30;93.80;;;;;;5043949;28;20021;-70
2022/07/14 01:17:39;;;;;;;14.07;3.30;;;12.30;93.90;;;;;;5045047;28;20382;-70
2022/07/14 01:20:06;;;;;;;9.80;2.85;;;12.30;93.60;;;;;;5045425;28;20060;-70
2022/07/14 01:22:31;;;;;;;14.05;3.45;;;12.10;93.70;;;;;;5041160;28;20033;-70
2022/07/14 01:24:57;;;;;;;16.15;2.92;;;12.10;93.70;;;;;;5043733;28;20438;-70
2022/07/14 01:27:22;;;;;;;19.33;3.60;;;12.10;93.80;;;;;;5048478;28;20457;-70
2022/07/14 01:46:38;;;;;;;19.55;3.33;;;11.80;93.80;;;;;;5043167;28;20056;-70
2022/07/14 01:49:05;;;;;;;15.05;3.35;;;11.80;93.90;;;;;;5043581;28;20037;-70
2022/07/14 01:51:31;;;;;;;12.30;3.35;;;11.70;93.90;;;;;;5044693;28;20033;-70
2022/07/14 01:53:56;;;;;;;24.30;3.45;;;11.70;94.00;;;;;;5042210;28;20048;-70
2022/07/14 01:56:22;;;;;;;15.10;3.60;;;11.60;93.80;;;;;;5035373;28;20059;-70
2022/07/14 01:58:48;;;;;;;15.98;3.30;;;11.60;94.00;;;;;;5044217;28;20109;-70
2022/07/14 02:04:00;;;;;;;12.27;2.78;;;11.40;93.90;;;;;;5045883;28;20194;-70
2022/07/14 02:06:26;;;;;;;12.90;2.95;;;11.30;93.80;;;;;;5047659;28;20487;-70
2022/07/14 02:08:51;;;;;;;15.18;2.67;;;11.20;93.40;;;;;;5042808;28;20025;-70
2022/07/14 02:14:03;;;;;;;13.00;3.20;;;11.10;93.30;;;;;;5039699;28;20036;-70
2022/07/14 02:16:29;;;;;;;14.93;3.13;;;11.00;93.20;;;;;;5041525;28;20120;-70
2022/07/14 02:18:55;;;;;;;14.02;2.83;;;11.00;93.40;;;;;;5042406;28;20028;-70
2022/07/14 02:21:21;;;;;;;14.23;3.65;;;11.00;93.90;;;;;;5042851;28;20048;-70
2022/07/14 02:23:47;;;;;;;10.25;3.25;;;11.00;94.00;;;;;;5044104;28;20426;-70
2022/07/14 02:26:13;;;;;;;15.82;4.20;;;10.90;94.00;;;;;;5043133;28;20461;-70
2022/07/14 02:28:40;;;;;;;11.23;3.13;;;10.90;94.20;;;;;;5041612;28;20030;-70
2022/07/14 02:31:05;;;;;;;16.88;3.28;;;10.90;94.20;;;;;;5043087;28;20586;-70
2022/07/14 02:33:31;;;;;;;9.80;3.53;;;10.80;93.90;;;;;;5046536;28;20112;-70
2022/07/14 02:35:56;;;;;;;16.48;3.40;;;10.80;93.90;;;;;;5045338;28;20691;-70
2022/07/14 02:38:22;;;;;;;13.85;2.90;;;10.80;94.00;;;;;;5043521;28;20581;-70
2022/07/14 02:40:47;;;;;;;11.48;3.15;;;10.80;94.20;;;;;;5045903;28;20441;-70
2022/07/14 02:43:13;;;;;;;19.15;3.60;;;10.70;94.10;;;;;;5043607;28;20036;-70
2022/07/14 02:45:39;;;;;;;10.82;3.60;;;10.80;94.40;;;;;;5045168;28;20456;-70
2022/07/14 02:48:06;;;;;;;17.67;3.50;;;10.70;94.40;;;;;;5042897;28;20029;-70
2022/07/14 02:50:32;;;;;;;15.18;3.60;;;10.70;94.30;;;;;;5037246;28;20496;-70
2022/07/14 02:52:57;;;;;;;16.20;4.18;;;10.70;94.30;;;;;;5042396;28;20038;-70
2022/07/14 02:55:23;;;;;;;14.88;3.80;;;10.60;94.20;;;;;;5042498;28;20037;-70
2022/07/14 02:57:48;;;;;;;12.02;3.15;;;10.60;94.00;;;;;;5042028;28;20033;-70
2022/07/14 03:00:14;;;;;;;12.00;3.70;;;10.60;94.00;;;;;;5042144;28;20177;-70
2022/07/14 03:02:40;;;;;;;12.52;3.50;;;10.60;94.00;;;;;;5044783;28;20028;-70
2022/07/14 03:05:06;;;;;;;15.52;3.70;;;10.70;94.60;;;;;;5041641;28;20549;-70
2022/07/14 03:07:32;;;;;;;25.40;3.97;;;10.60;94.80;;;;;;5045413;28;20132;-70
2022/07/14 03:09:57;;;;;;;11.65;3.95;;;10.60;94.80;;;;;;5037158;28;20033;-69
2022/07/14 03:12:23;;;;;;;15.55;4.05;;;10.60;94.90;;;;;;5045808;28;20037;-70
2022/07/14 03:14:48;;;;;;;9.85;3.47;;;10.60;95.00;;;;;;5043834;28;20468;-70
2022/07/14 03:17:15;;;;;;;14.73;3.85;;;10.50;95.10;;;;;;5041169;28;20444;-70
2022/07/14 03:19:40;;;;;;;12.27;3.50;;;10.40;95.10;;;;;;5043168;28;20146;-70
2022/07/14 03:22:06;;;;;;;13.65;4.00;;;10.40;95.30;;;;;;5038117;28;20506;-70
2022/07/14 03:24:31;;;;;;;12.48;3.75;;;10.40;95.20;;;;;;5042708;28;20179;-70
2022/07/14 03:26:58;;;;;;;14.40;3.90;;;10.40;95.10;;;;;;5049727;28;20063;-70
2022/07/14 03:29:23;;;;;;;11.27;3.72;;;10.40;95.20;;;;;;5039288;28;20124;-70
2022/07/14 03:31:49;;;;;;;12.45;3.72;;;10.40;95.10;;;;;;5044388;28;20528;-70
2022/07/14 03:34:14;;;;;;;12.43;3.58;;;10.40;94.80;;;;;;5039567;28;20492;-70
2022/07/14 03:36:40;;;;;;;11.07;3.25;;;10.30;94.70;;;;;;5049279;28;20029;-70
2022/07/14 03:39:06;;;;;;;14.48;4.15;;;10.30;94.70;;;;;;5036922;28;20104;-70
2022/07/14 03:41:31;;;;;;;13.93;3.67;;;10.30;94.50;;;;;;5044669;28;20044;-70
2022/07/14 03:43:57;;;;;;;8.10;3.38;;;10.30;94.70;;;;;;5045610;28;20211;-69
2022/07/14 03:46:22;;;;;;;17.38;4.13;;;10.40;94.50;;;;;;5042589;28;20375;-70
2022/07/14 03:48:47;;;;;;;9.85;3.28;;;10.30;94.60;;;;;;5049600;28;20037;-70
2022/07/14 03:51:13;;;;;;;9.90;3.88;;;10.40;94.70;;;;;;5043651;28;20433;-70
2022/07/14 03:53:39;;;;;;;18.40;4.50;;;10.40;94.80;;;;;;5049510;28;20132;-70
2022/07/14 03:56:04;;;;;;;16.88;3.97;;;10.40;94.80;;;;;;5048092;28;20040;-70
2022/07/14 03:58:30;;;;;;;20.80;4.10;;;10.40;94.70;;;;;;5046579;28;20128;-70
2022/07/14 04:00:56;;;;;;;16.55;4.80;;;10.40;94.80;;;;;;5047271;28;20033;-70
2022/07/14 04:03:21;;;;;;;17.27;4.90;;;10.50;95.10;;;;;;5045706;28;20485;-70
2022/07/14 04:05:47;;;;;;;25.25;4.97;;;10.50;95.10;;;;;;5049058;28;20131;-70
2022/07/14 04:08:13;;;;;;;15.82;4.60;;;10.50;95.00;;;;;;5047159;28;20103;-70
2022/07/14 04:10:39;;;;;;;11.32;4.68;;;10.50;95.30;;;;;;5043811;28;20095;-69
2022/07/14 04:13:05;;;;;;;14.98;4.60;;;10.50;95.30;;;;;;5045633;28;20037;-69
2022/07/14 04:15:31;;;;;;;14.55;4.53;;;10.50;95.30;;;;;;5044304;28;20030;-70
2022/07/14 04:17:58;;;;;;;23.05;4.93;;;10.50;95.50;;;;;;5048039;28;20115;-69
2022/07/14 04:20:24;;;;;;;13.02;4.45;;;10.60;95.50;;;;;;5045762;28;20129;-70
2022/07/14 04:22:50;;;;;;;12.80;4.28;;;10.60;95.60;;;;;;5047977;28;20530;-69
2022/07/14 04:25:16;;;;;;;20.40;5.32;;;10.60;95.50;;;;;;5048230;28;20223;-69
2022/07/14 04:27:42;;;;;;;16.10;5.18;;;10.60;95.40;;;;;;5043960;28;20116;-68
2022/07/14 04:30:09;;;;;;;16.10;5.43;;;10.60;95.70;;;;;;5041186;28;20399;-67
2022/07/14 04:32:34;;;;;;;19.08;5.43;;;10.70;95.80;;;;;;5045127;28;20063;-67
2022/07/14 04:35:00;;;;;;;15.52;5.20;;;10.80;95.90;;;;;;5046355;28;20065;-67
2022/07/14 04:37:26;;;;;;;21.83;5.65;;;10.80;96.10;;;;;;5048538;28;20033;-67
2022/07/14 04:39:53;;;;;;;14.50;5.38;;;10.90;96.20;;;;;;5030579;28;20061;-67
2022/07/14 04:42:18;;;;;;;15.13;5.68;;;10.90;96.10;;;;;;5042250;28;20087;-67
2022/07/14 04:44:44;;;;;;;18.45;6.00;;;11.00;96.20;;;;;;5036683;28;20036;-67
2022/07/14 04:47:09;;;;;;;13.13;5.05;;;11.00;96.20;;;;;;5043674;28;20433;-67
2022/07/14 04:52:19;;;;;;;17.90;5.40;;;11.10;96.00;;;;;;5038274;28;20371;-69
2022/07/14 04:54:45;;;;;;;16.70;5.15;;;11.10;96.00;;;;;;5042853;28;20029;-69
2022/07/14 04:57:11;;;;;;;16.85;4.88;;;11.20;96.00;;;;;;5042297;28;20039;-69
2022/07/14 04:59:37;;;;;;;10.98;5.05;;;11.20;95.90;;;;;;5040022;28;20025;-69
2022/07/14 05:02:04;;;;;;;14.55;4.75;;;11.30;95.90;;;;;;5042562;28;20045;-70
2022/07/14 05:04:30;;;;;;;18.85;4.63;;;11.30;95.80;;;;;;5047663;28;20036;-70
2022/07/14 05:06:57;;;;;;;15.68;4.85;;;11.40;95.70;;;;;;5047696;28;20016;-69
2022/07/14 05:09:25;;;;;;;17.15;4.80;;;11.30;95.50;;;;;;5047134;28;20043;-69
2022/07/14 05:11:51;;;;;;;10.77;4.82;;;11.40;95.70;;;;;;5044165;28;20055;-69
2022/07/14 05:14:17;;;;;;;15.45;4.40;;;11.50;95.30;;;;;;5045979;28;20029;-69
2022/07/14 05:16:44;;;;;;;10.73;3.97;;;11.50;95.60;;;;;;5039486;28;20474;-69
2022/07/14 05:19:10;;;;;;;12.40;3.80;;;11.50;95.60;;;;;;5038304;28;20053;-69
2022/07/14 05:21:36;;;;;;;11.88;4.97;;;11.60;95.50;;;;;;5040738;28;20029;-68
2022/07/14 05:24:02;;;;;;;10.18;3.70;;;11.70;95.40;;;;;;5042377;28;20041;-69
2022/07/14 05:26:27;;;;;;;14.90;4.05;;;11.70;95.30;;;;;;5041041;28;20347;-70
2022/07/14 05:28:53;;;;;;;8.57;3.85;;;11.80;95.30;;;;;;5034621;28;20052;-69
2022/07/14 05:31:19;;;;;;;12.95;3.80;;;11.90;95.10;;;;;;5046001;28;20464;-69
2022/07/14 05:33:44;;;;;;;14.68;4.20;;;12.00;95.00;;;;;;5043237;28;20124;-69
2022/07/14 05:36:10;;;;;;;16.70;4.13;;;12.20;94.90;;;;;;5038960;28;20108;-69
2022/07/14 05:38:35;;;;;;;13.15;3.47;;;12.30;94.80;;;;;;5046213;28;20044;-69
2022/07/14 05:41:01;;;;;;;10.70;3.05;;;12.30;94.50;;;;;;5042076;28;20021;-69
2022/07/14 05:43:28;;;;;;;13.88;4.13;;;12.40;94.10;;;;;;5042572;28;20923;-69
2022/07/14 05:45:53;;;;;;;8.18;3.10;;;12.50;93.90;;;;;;5042457;28;20043;-70
2022/07/14 05:48:19;;;;;;;9.02;3.35;;;12.60;93.90;;;;;;5044247;28;20111;-69
2022/07/14 05:50:45;;;;;;;9.93;3.25;;;12.80;93.70;;;;;;5046497;28;20033;-68
2022/07/14 05:53:10;;;;;;;16.67;3.15;;;12.90;93.70;;;;;;5047268;28;20447;-70
2022/07/14 05:55:36;;;;;;;9.57;2.95;;;13.10;93.60;;;;;;5039952;28;20040;-69
2022/07/14 05:58:01;;;;;;;15.35;3.38;;;13.30;93.10;;;;;;5047038;28;20472;-69
2022/07/14 06:00:27;;;;;;;13.52;3.00;;;13.50;92.50;;;;;;5045658;28;20044;-69
2022/07/14 06:02:52;;;;;;;10.05;2.13;;;13.50;91.50;;;;;;5044164;28;20056;-71
2022/07/14 06:05:18;;;;;;;14.57;2.95;;;13.80;90.90;;;;;;5044615;28;20398;-71
2022/07/14 06:07:44;;;;;;;7.00;2.67;;;13.80;90.70;;;;;;5039069;28;20449;-71
2022/07/14 06:10:11;;;;;;;8.50;2.50;;;14.00;90.60;;;;;;5045757;28;20028;-71
2022/07/14 06:12:37;;;;;;;14.27;2.47;;;14.10;90.00;;;;;;5044430;28;20029;-71
2022/07/14 06:15:05;;;;;;;10.38;2.08;;;14.20;89.00;;;;;;5035927;28;20429;-71
2022/07/14 06:17:31;;;;;;;6.60;2.35;;;14.30;89.00;;;;;;5046730;28;20082;-71
2022/07/14 06:20:00;;;;;;;9.02;1.98;;;14.40;88.80;;;;;;5045638;28;20045;-72
2022/07/14 06:22:26;;;;;;;7.47;2.05;;;14.50;88.80;;;;;;5049062;28;20029;-71
2022/07/14 06:24:52;;;;;;;11.02;2.40;;;14.60;88.50;;;;;;5045087;28;20037;-71
2022/07/14 06:27:17;;;;;;;8.00;1.80;;;14.70;88.30;;;;;;5046924;28;20198;-71
2022/07/14 06:29:43;;;;;;;4.35;1.38;;;15.00;88.10;;;;;;5046509;28;20047;-71
2022/07/14 06:32:08;;;;;;;12.10;2.03;;;15.00;87.40;;;;;;5049438;28;20046;-72
2022/07/14 06:34:34;;;;;;;6.00;1.33;;;15.10;85.70;;;;;;5046061;28;20041;-71
2022/07/14 06:37:00;;;;;;;5.88;1.30;;;15.30;82.90;;;;;;5048752;28;20051;-71
2022/07/14 06:39:25;;;;;;;8.73;1.30;;;15.40;83.20;;;;;;5046093;28;20032;-71
2022/07/14 06:41:51;;;;;;;4.47;1.40;;;15.40;82.10;;;;;;5047325;28;20033;-71
2022/07/14 06:44:16;;;;;;;8.68;1.17;;;15.50;81.40;;;;;;5046788;28;20060;-71
2022/07/14 06:46:42;;;;;;;3.25;1.02;;;15.50;81.80;;;;;;5044086;28;20021;-71
2022/07/14 06:49:07;;;;;;;6.63;1.10;;;15.50;80.10;;;;;;5048774;28;20029;-71
2022/07/14 06:51:33;;;;;;;3.72;0.63;;;15.70;79.60;;;;;;5048770;28;20025;-71
2022/07/14 06:53:58;;;;;;;7.10;1.20;;;15.90;79.90;;;;;;5046822;28;20151;-71
2022/07/14 06:56:24;;;;;;;6.40;1.13;;;16.00;78.60;;;;;;5046464;28;20492;-71
2022/07/14 06:58:49;;;;;;;6.88;1.05;;;16.00;79.40;;;;;;5045843;28;20033;-71
2022/07/14 07:01:15;;;;;;;7.80;0.90;;;16.10;78.90;;;;;;5048773;28;20106;-71
2022/07/14 07:03:40;;;;;;;6.82;1.10;;;16.40;78.90;;;;;;5046017;28;20128;-71
2022/07/14 07:08:51;;;;;;;8.25;1.05;;;16.50;77.00;;;;;;5047743;28;20071;-71
2022/07/14 07:11:17;;;;;;;4.13;0.90;;;16.50;74.90;;;;;;5044523;28;20029;-72
2022/07/14 07:13:42;;;;;;;7.22;0.93;;;16.50;74.90;;;;;;5043902;28;20341;-71
2022/07/14 07:16:08;;;;;;;3.50;1.00;;;16.70;74.10;;;;;;5048138;28;20025;-71
2022/07/14 07:18:35;;;;;;;4.05;0.95;;;16.90;74.30;;;;;;5051640;28;20091;-71
2022/07/14 07:21:01;;;;;;;3.38;0.93;;;16.90;72.10;;;;;;5052728;28;20045;-71
2022/07/14 07:23:27;;;;;;;5.07;1.25;;;16.90;71.30;;;;;;5051261;28;20204;-71
2022/07/14 07:25:53;;;;;;;3.85;0.85;;;17.20;71.80;;;;;;5051227;28;20033;-71
2022/07/14 07:28:18;;;;;;;2.53;0.63;;;17.20;69.90;;;;;;5048998;28;20053;-72
2022/07/14 07:30:44;;;;;;;3.45;0.88;;;17.60;70.90;;;;;;5051402;28;20102;-72
2022/07/14 07:33:09;;;;;;;2.83;0.73;;;17.70;70.10;;;;;;5050535;28;20502;-71
2022/07/14 07:35:35;;;;;;;3.15;0.60;;;18.00;68.90;;;;;;5052111;28;20104;-72
2022/07/14 07:38:01;;;;;;;4.78;0.75;;;17.70;68.80;;;;;;5052328;28;20376;-71
2022/07/14 07:40:26;;;;;;;6.43;0.95;;;17.80;69.40;;;;;;5045685;28;20486;-71
2022/07/14 07:42:52;;;;;;;8.23;0.73;;;17.50;69.10;;;;;;5050137;28;20057;-71
2022/07/14 07:45:18;;;;;;;3.42;0.57;;;17.10;68.20;;;;;;5042705;28;20045;-72
2022/07/14 07:47:43;;;;;;;5.43;0.70;;;17.10;68.00;;;;;;5051941;28;20029;-71
2022/07/14 07:50:10;;;;;;;3.45;0.70;;;17.70;67.20;;;;;;5051337;28;20366;-72
2022/07/14 07:52:36;;;;;;;5.13;0.70;;;18.30;65.60;;;;;;5047639;28;20416;-71
2022/07/14 07:55:10;;;;;;;3.95;0.70;;;18.20;66.60;;;;;;5045720;28;20021;-70
2022/07/14 07:57:36;;;;;;;2.53;0.60;;;18.00;67.40;;;;;;5050239;28;20413;-70
2022/07/14 08:00:04;;;;;;;5.45;0.95;;;17.60;66.40;;;;;;5036675;28;20181;-70
2022/07/14 08:02:30;;;;;;;2.83;0.60;;;17.70;66.10;;;;;;5048532;28;20395;-71
2022/07/14 08:04:55;;;;;;;3.90;0.88;;;18.00;65.60;;;;;;5043509;28;20057;-72
2022/07/14 08:07:21;;;;;;;3.33;0.60;;;18.20;64.30;;;;;;5041925;28;20033;-72
2022/07/14 08:09:46;;;;;;;2.38;0.50;;;18.20;62.20;;;;;;5044093;28;20072;-72
2022/07/14 08:12:12;;;;;;;1.77;0.50;;;19.00;62.40;;;;;;5044125;28;20141;-72
2022/07/14 08:14:51;;;;;;;1.17;0.47;;;19.50;61.10;;;;;;5047316;28;20061;-72
2022/07/14 08:17:19;;;;;;;5.55;0.50;;;19.50;61.50;;;;;;5048736;28;20036;-72
2022/07/14 08:19:44;;;;;;;3.88;0.80;;;18.90;63.10;;;;;;5049891;28;20056;-72
2022/07/14 08:22:10;;;;;;;2.97;0.80;;;18.50;63.40;;;;;;5046301;28;20056;-72
2022/07/14 08:24:35;;;;;;;4.95;0.60;;;18.20;64.50;;;;;;5048244;28;20068;-72
2022/07/14 08:27:01;;;;;;;1.38;0.50;;;17.80;64.00;;;;;;5042003;28;20025;-72
2022/07/14 08:29:27;;;;;;;2.05;0.50;;;18.60;62.80;;;;;;5047595;28;20041;-71
2022/07/14 08:31:52;;;;;;;5.55;0.60;;;19.00;61.50;;;;;;5049287;28;20029;-71
2022/07/14 08:34:18;;;;;;;3.28;0.70;;;19.30;60.00;;;;;;5049613;28;20044;-72
2022/07/14 08:36:43;;;;;;;3.55;0.82;;;19.00;61.60;;;;;;5048013;28;20032;-72
2022/07/14 08:39:09;;;;;;;3.85;0.60;;;19.10;62.50;;;;;;5043950;28;20073;-72
2022/07/14 08:41:37;;;;;;;3.58;0.68;;;18.70;62.00;;;;;;5047097;28;20124;-73
2022/07/14 08:44:04;;;;;;;1.98;0.40;;;18.30;61.80;;;;;;5040155;28;20029;-72
2022/07/14 08:46:36;;;;;;;3.88;0.57;;;18.20;62.50;;;;;;5044907;28;20087;-72
2022/07/14 08:49:02;;;;;;;2.13;0.57;;;18.80;61.70;;;;;;5040835;28;20350;-72
2022/07/14 08:51:28;;;;;;;3.40;0.70;;;19.10;61.20;;;;;;5045883;28;20035;-70
2022/07/14 08:53:54;;;;;;;1.65;0.45;;;19.60;58.60;;;;;;5046809;28;20028;-71
2022/07/14 08:56:20;;;;;;;5.03;0.95;;;20.00;58.70;;;;;;5043330;28;20032;-71
2022/07/14 08:58:47;;;;;;;4.88;0.90;;;20.60;57.10;;;;;;5041911;28;20029;-71
2022/07/14 09:01:13;;;;;;;5.72;0.60;;;19.90;59.10;;;;;;5039861;28;20138;-71
2022/07/14 09:03:42;;;;;;;2.80;0.68;;;19.30;60.00;;;;;;5043509;28;20116;-71
2022/07/14 09:06:07;;;;;;;2.50;0.60;;;18.90;61.30;;;;;;5049169;28;20364;-70
2022/07/14 09:08:54;;;;;;;4.88;1.10;;;19.00;61.50;;;;;;5045260;28;20033;-70
2022/07/14 09:11:20;;;;;;;5.68;0.80;;;19.20;59.90;;;;;;5046553;28;20170;-71
2022/07/14 09:13:45;;;;;;;3.72;1.00;;;19.50;58.20;;;;;;5048190;28;20088;-71
2022/07/14 09:16:17;;;;;;;3.88;0.80;;;19.60;57.00;;;;;;5044919;28;20052;-71
2022/07/14 09:18:42;;;;;;;7.13;0.90;;;19.60;57.10;;;;;;5044795;28;20502;-71
2022/07/14 09:21:20;;;;;;;4.88;0.60;;;19.90;58.60;;;;;;5039165;28;20116;-71
2022/07/14 09:23:46;;;;;;;2.50;0.60;;;19.70;57.60;;;;;;5048030;28;20061;-71
2022/07/14 09:26:15;;;;;;;5.35;0.80;;;19.60;57.50;;;;;;5049136;28;20075;-71
2022/07/14 09:28:42;;;;;;;1.65;0.47;;;19.90;57.70;;;;;;5046079;28;20032;-71
2022/07/14 09:31:29;;;;;;;2.55;0.57;;;20.10;55.20;;;;;;5047628;28;20350;-71
2022/07/14 09:33:59;;;;;;;3.15;0.60;;;20.10;56.80;;;;;;5033131;28;20029;-71
2022/07/14 09:36:29;;;;;;;2.53;0.52;;;19.90;56.50;;;;;;5050072;28;20051;-71
2022/07/14 09:39:06;;;;;;;4.13;0.70;;;19.90;56.90;;;;;;5047871;28;20580;-71
2022/07/14 09:41:48;;;;;;;4.45;0.50;;;19.80;57.00;;;;;;5037428;28;20113;-71
2022/07/14 09:44:17;;;;;;;3.75;0.88;;;19.80;57.70;;;;;;5037696;28;20430;-71
2022/07/14 09:46:54;;;;;;;2.35;0.73;;;20.20;56.70;;;;;;5046066;28;20132;-71
2022/07/14 09:49:25;;;;;;;3.38;0.80;;;20.80;56.50;;;;;;5040450;28;20128;-71
2022/07/14 09:51:56;;;;;;;2.67;0.50;;;20.60;54.50;;;;;;5049512;28;20033;-71
2022/07/14 09:54:36;;;;;;;;;;;20.90;54.10;;;;;;5041029;28;20032;-71
2022/07/14 09:57:17;;;;;;;3.13;0.50;;;21.20;54.00;;;;;;5045409;28;20018;-71
2022/07/14 09:59:43;;;;;;;;;;;20.80;51.50;;;;;;5036680;28;20035;-71
2022/07/14 10:02:14;;;;;;;4.47;0.70;;;20.40;54.00;;;;;;5043586;28;19909;-72
2022/07/14 10:04:40;;;;;;;4.95;0.50;;;20.70;53.40;;;;;;5044735;28;20041;-71
2022/07/14 10:07:06;;;;;;;3.78;0.30;;;21.00;56.00;;;;;;5049246;28;20432;-71
2022/07/14 10:09:32;;;;;;;6.38;0.60;;;21.20;51.20;;;;;;5046076;28;20035;-71
2022/07/14 10:12:00;;;;;;;2.58;0.55;;;21.50;52.40;;;;;;5045761;28;20037;-71
2022/07/14 10:14:25;;;;;;;4.75;0.73;;;21.40;52.10;;;;;;5044571;28;20391;-71
2022/07/14 10:16:51;;;;;;;7.43;0.80;;;20.90;53.60;;;;;;5041499;28;20036;-71
2022/07/14 10:19:19;;;;;;;3.80;0.57;;;21.20;52.70;;;;;;5042922;28;20057;-71
2022/07/14 10:21:46;;;;;;;3.70;0.65;;;21.00;54.10;;;;;;5046413;28;20080;-71
2022/07/14 10:24:12;;;;;;;4.68;0.80;;;21.30;53.40;;;;;;5046163;28;20043;-71
2022/07/14 10:26:38;;;;;;;2.45;0.57;;;21.10;54.10;;;;;;5043206;28;20033;-71
2022/07/14 10:29:05;;;;;;;7.20;0.90;;;20.80;54.20;;;;;;5043551;28;20108;-71
2022/07/14 10:31:58;;;;;;;3.47;0.80;;;20.70;54.00;;;;;;5046039;28;20036;-71
2022/07/14 10:34:36;;;;;;;3.55;0.75;;;21.60;53.40;;;;;;5048924;28;20051;-71
2022/07/14 10:37:16;;;;;;;1.95;0.50;;;21.80;52.20;;;;;;5047503;28;20057;-71
2022/07/14 10:39:49;;;;;;;0.95;0.52;;;21.20;51.10;;;;;;5039577;28;20486;-71
2022/07/14 10:42:30;;;;;;;2.90;0.65;;;21.30;51.20;;;;;;5041887;28;20050;-71
2022/07/14 10:44:56;;;;;;;5.47;0.70;;;21.00;52.70;;;;;;5037100;28;20040;-73
2022/07/14 10:47:25;;;;;;;2.40;0.70;;;21.20;50.60;;;;;;5041158;28;20032;-73
2022/07/14 10:50:08;;;;;;;4.35;0.80;;;21.40;51.40;;;;;;5043830;28;20047;-72
2022/07/14 10:52:36;;;;;;;1.27;0.43;;;21.50;51.70;;;;;;5041679;28;20036;-71
2022/07/14 10:55:28;;;;;;;1.65;0.47;;;21.30;53.10;;;;;;5036937;28;20052;-71
2022/07/14 10:58:00;;;;;;;2.88;0.50;;;21.70;50.70;;;;;;5040048;28;20052;-71
2022/07/14 11:00:41;;;;;;;3.72;0.52;;;22.10;50.60;;;;;;5039655;28;20364;-72
2022/07/14 11:03:24;;;;;;;;;;;22.20;49.20;;;;;;5041873;28;20037;-72
2022/07/14 11:06:11;;;;;;;2.58;0.65;;;21.80;48.50;;;;;;5044699;28;19924;-72
2022/07/14 11:08:43;;;;;;;2.03;0.50;;;22.00;49.10;;;;;;5038975;28;20029;-72
2022/07/14 11:11:22;;;;;;;2.80;0.60;;;21.70;49.80;;;;;;5036515;28;20626;-72
2022/07/14 11:14:00;;;;;;;1.75;0.40;;;21.60;50.70;;;;;;5043796;28;20483;-71
2022/07/14 11:16:44;;;;;;;1.88;0.38;;;21.20;48.60;;;;;;5031996;28;20039;-72
2022/07/14 11:19:20;;;;;;;3.00;0.47;;;21.60;48.30;;;;;;5038648;28;20193;-72
2022/07/14 11:22:18;;;;;;;2.03;0.43;;;22.30;47.40;;;;;;5039003;28;20428;-72
2022/07/14 11:24:53;;;;;;;5.10;0.68;;;22.20;50.50;;;;;;5040891;28;20417;-72
2022/07/14 11:27:25;;;;;;;1.75;0.50;;;22.40;50.50;;;;;;5047358;28;20025;-72
2022/07/14 11:29:50;;;;;;;3.03;0.70;;;22.20;49.30;;;;;;5046581;28;20037;-72
2022/07/14 11:32:32;;;;;;;2.03;0.47;;;22.10;49.20;;;;;;5048598;28;20103;-72
2022/07/14 11:38:00;;;;;;;1.45;0.60;;;21.80;48.20;;;;;;5047489;28;20400;-72
2022/07/14 11:40:49;;;;;;;2.15;0.50;;;22.10;48.10;;;;;;5043116;28;20100;-72
2022/07/14 11:43:30;;;;;;;1.38;0.40;;;22.00;48.50;;;;;;5045807;28;20029;-71
2022/07/14 11:46:04;;;;;;;6.65;0.40;;;21.60;48.80;;;;;;5041984;28;20447;-72
2022/07/14 11:48:32;;;;;;;2.03;0.57;;;21.60;49.60;;;;;;5043827;28;20135;-72
2022/07/14 11:51:06;;;;;;;3.22;0.60;;;21.30;50.40;;;;;;5046811;28;20033;-72
2022/07/14 11:53:37;;;;;;;1.75;0.28;;;21.00;50.00;;;;;;5045246;28;20028;-72
2022/07/14 11:56:04;;;;;;;2.08;0.50;;;21.60;50.70;;;;;;5047149;28;20514;-72
2022/07/14 11:58:31;;;;;;;2.08;0.40;;;21.70;50.60;;;;;;5046603;28;20038;-72
2022/07/14 12:00:59;;;;;;;3.28;0.63;;;21.60;50.60;;;;;;5050814;28;20112;-72
2022/07/14 12:03:25;;;;;;;1.80;0.45;;;21.30;50.90;;;;;;5048545;28;20510;-72
2022/07/14 12:05:57;;;;;;;4.22;0.60;;;21.30;51.30;;;;;;5048848;28;20337;-71
2022/07/14 12:08:27;;;;;;;3.72;0.60;;;20.60;52.10;;;;;;5050236;28;20924;-71
2022/07/14 12:10:53;;;;;;;2.25;0.57;;;20.60;52.80;;;;;;5048851;28;20456;-71
2022/07/14 12:13:19;;;;;;;2.58;0.43;;;20.60;53.00;;;;;;5046144;28;20072;-71
2022/07/14 12:15:45;;;;;;;1.73;0.57;;;20.70;52.10;;;;;;5044873;28;20074;-72
2022/07/14 12:18:12;;;;;;;4.80;0.60;;;20.50;52.80;;;;;;5048169;28;20064;-71
2022/07/14 12:20:46;;;;;;;1.67;0.40;;;21.00;51.40;;;;;;5048517;28;20060;-71
2022/07/14 12:23:14;;;;;;;3.28;0.35;;;21.40;50.60;;;;;;5047366;28;20124;-71
2022/07/14 12:25:43;;;;;;;2.05;0.57;;;21.20;52.20;;;;;;5047039;28;20474;-72
2022/07/14 12:28:11;;;;;;;4.50;0.80;;;20.90;51.10;;;;;;5048146;28;20072;-71
2022/07/14 12:30:51;;;;;;;2.58;0.50;;;20.90;50.70;;;;;;5052215;28;20036;-71
2022/07/14 12:33:24;;;;;;;1.38;0.45;;;20.80;51.20;;;;;;5048906;28;20024;-72
2022/07/14 12:35:52;;;;;;;3.38;0.60;;;20.90;52.40;;;;;;5048467;28;20040;-72
2022/07/14 12:38:19;;;;;;;2.22;0.43;;;20.70;52.90;;;;;;5044389;28;20037;-72
2022/07/14 12:41:04;;;;;;;2.28;0.60;;;21.00;51.30;;;;;;5047487;28;20037;-72
2022/07/14 12:43:32;;;;;;;1.65;0.45;;;21.00;50.80;;;;;;5041430;28;20558;-71
2022/07/14 12:46:05;;;;;;;1.35;0.40;;;21.20;48.90;;;;;;5037123;28;20040;-71
2022/07/14 12:48:32;;;;;;;1.80;0.60;;;21.10;50.50;;;;;;5048393;28;20024;-71
2022/07/14 12:51:33;;;;;;;1.17;0.45;;;21.00;51.60;;;;;;5050257;28;20480;-71
2022/07/14 12:54:08;;;;;;;2.05;0.50;;;20.80;51.60;;;;;;5044023;28;20036;-72
2022/07/14 12:56:43;;;;;;;1.60;0.45;;;20.80;53.30;;;;;;5046935;28;20041;-72
2022/07/14 12:59:11;;;;;;;2.70;0.40;;;20.80;50.70;;;;;;5048020;28;20163;-71
2022/07/14 13:01:57;;;;;;;1.20;0.50;;;20.90;51.10;;;;;;5046809;28;20067;-71
2022/07/14 13:04:34;;;;;;;2.15;0.40;;;20.80;52.80;;;;;;5048600;28;20457;-72
2022/07/14 13:07:02;;;;;;;4.07;0.60;;;20.80;52.90;;;;;;5050228;28;20025;-71
2022/07/14 13:09:27;;;;;;;4.75;0.60;;;20.50;53.60;;;;;;5049841;28;20032;-72
2022/07/14 13:11:55;;;;;;;5.95;0.60;;;20.50;53.70;;;;;;5048571;28;20599;-71
2022/07/14 13:14:21;;;;;;;3.50;0.50;;;20.70;54.30;;;;;;5044499;28;20052;-71
2022/07/14 13:16:49;;;;;;;2.80;0.60;;;20.90;53.90;;;;;;5047063;28;20068;-72
2022/07/14 13:19:20;;;;;;;1.13;0.30;;;21.20;52.80;;;;;;5041115;28;20053;-71